Kitty — ZCXB — position and weather

sailwx.info

Track history (hours):
 
Tides and Currents Weather Stations Pressure Air Temp Water Temp Dewpoint Dewpoint Depression Visibility Wind Speed Wind Dir Waves Ship Positions

Kitty

Last reported at 2014-Jul-30 11:23 UTC. Time now 2014-Jul-30 13:17 UTC.
Position N 43°32' E 007°03'.

Length 38 m; draft 2.7 m.

Type: Pleasure craft. MMSI: 319423000.

Date/timePositionNaut miles runAvg speedWind from/ knotsBaromVisibWave heightAir tempDewpointWater temp
2014-Jul-30 11:23N 43°32' E 007°03'0 0.0
2014-Jul-30 10:32N 43°32' E 007°03'3 2.6
2014-Jul-30 09:33N 43°33' E 007°06'0 0.5
2014-Jul-30 08:33N 43°33' E 007°07'2 1.5
2014-Jul-30 07:28N 43°34' E 007°05'0 0.0
2014-Jul-30 06:28N 43°34' E 007°05'0 0.0
2014-Jul-30 05:22N 43°34' E 007°05'0 0.0
2014-Jul-30 04:28N 43°34' E 007°05'0 0.0
2014-Jul-30 03:28N 43°34' E 007°05'0 0.0
2014-Jul-30 02:28N 43°34' E 007°05'0 0.0
2014-Jul-30 01:28N 43°34' E 007°05'0 0.0
2014-Jul-30 00:16N 43°34' E 007°05'0 0.0
2014-Jul-29 23:28N 43°34' E 007°05'0 0.0
2014-Jul-29 22:28N 43°34' E 007°05'0 0.0
2014-Jul-29 21:28N 43°34' E 007°05'0 0.0
2014-Jul-29 20:28N 43°34' E 007°05'0 0.0
2014-Jul-29 19:28N 43°34' E 007°05'0 0.0
2014-Jul-29 18:22N 43°34' E 007°05'0 0.0
2014-Jul-29 17:28N 43°34' E 007°05'0 0.0
2014-Jul-29 16:28N 43°34' E 007°05'0 0.0
2014-Jul-29 15:28N 43°34' E 007°05'0 0.0
2014-Jul-29 14:16N 43°34' E 007°05'0 0.0
2014-Jul-29 13:28N 43°34' E 007°05'0 0.0
2014-Jul-29 12:28N 43°34' E 007°05'0 0.0
2014-Jul-29 11:28N 43°34' E 007°05'0 0.0
2014-Jul-29 10:22N 43°34' E 007°05'0 0.0
2014-Jul-29 09:22N 43°34' E 007°05'0 0.0
2014-Jul-29 08:22N 43°34' E 007°05'0 0.0
2014-Jul-29 07:28N 43°34' E 007°05'0 0.0
2014-Jul-29 06:28N 43°34' E 007°05'0 0.0
2014-Jul-29 05:28N 43°34' E 007°05'0 0.0
2014-Jul-29 04:28N 43°34' E 007°05'0 0.0
2014-Jul-29 03:28N 43°34' E 007°05'0 0.0
2014-Jul-29 02:28N 43°34' E 007°05'0 0.0
2014-Jul-29 01:28N 43°34' E 007°05'0 0.0
2014-Jul-29 00:28N 43°34' E 007°05'0 0.0
2014-Jul-28 23:28N 43°34' E 007°05'0 0.0
2014-Jul-28 22:28N 43°34' E 007°05'0 0.0
2014-Jul-28 21:28N 43°34' E 007°05'0 0.0
2014-Jul-28 20:28N 43°34' E 007°05'0 0.0
2014-Jul-28 19:28N 43°34' E 007°05'0 0.0
2014-Jul-28 18:22N 43°34' E 007°05'0 0.0
2014-Jul-28 17:22N 43°34' E 007°05'0 0.0
2014-Jul-28 16:28N 43°34' E 007°05'0 0.0
2014-Jul-28 15:28N 43°34' E 007°05'0 0.0
2014-Jul-28 14:28N 43°34' E 007°05'0 0.0
2014-Jul-28 13:28N 43°34' E 007°05'0 0.0
2014-Jul-28 12:28N 43°34' E 007°05'0 0.0
2014-Jul-28 11:28N 43°34' E 007°05'0 0.0
2014-Jul-28 10:16N 43°34' E 007°05'0 0.0
2014-Jul-28 09:28N 43°34' E 007°05'0 0.0
2014-Jul-28 08:22N 43°34' E 007°05'0 0.0
2014-Jul-28 07:28N 43°34' E 007°05'0 0.0
2014-Jul-28 06:22N 43°34' E 007°05'0 0.0
2014-Jul-28 05:22N 43°34' E 007°05'0 0.0
2014-Jul-28 04:28N 43°34' E 007°05'0 0.0
2014-Jul-28 03:28N 43°34' E 007°05'0 0.0
2014-Jul-28 02:22N 43°34' E 007°05'0 0.0
2014-Jul-28 01:28N 43°34' E 007°05'0 0.0
2014-Jul-28 00:28N 43°34' E 007°05'0 0.0
2014-Jul-27 23:28N 43°34' E 007°05'0 0.0
2014-Jul-27 22:28N 43°34' E 007°05'0 0.0
2014-Jul-27 21:28N 43°34' E 007°05'0 0.0
2014-Jul-27 20:28N 43°34' E 007°05'0 0.0
2014-Jul-27 19:28N 43°34' E 007°05'0 0.0
2014-Jul-27 18:28N 43°34' E 007°05'0 0.0
2014-Jul-27 17:28N 43°34' E 007°05'0 0.0
2014-Jul-27 16:28N 43°34' E 007°05'0 0.0
2014-Jul-27 15:23N 43°34' E 007°05'0 0.0
2014-Jul-27 14:33N 43°34' E 007°05'1 1.0
2014-Jul-27 13:33N 43°33' E 007°06'1 0.7
2014-Jul-27 12:28N 43°33' E 007°07'0 0.0
2014-Jul-27 11:22N 43°33' E 007°07'0 0.0
2014-Jul-27 10:28N 43°33' E 007°07'0 0.0
2014-Jul-27 09:22N 43°33' E 007°07'0 0.0
2014-Jul-27 08:28N 43°33' E 007°07'0 0.0
2014-Jul-27 07:28N 43°33' E 007°07'0 0.0
2014-Jul-27 06:34N 43°33' E 007°07'0 0.0
2014-Jul-27 05:34N 43°33' E 007°07'0 0.0
2014-Jul-27 04:34N 43°33' E 007°07'0 0.0
2014-Jul-27 03:34N 43°33' E 007°07'0 0.0
2014-Jul-27 02:28N 43°33' E 007°07'0 0.0
2014-Jul-27 01:34N 43°33' E 007°07'0 0.0
2014-Jul-27 00:34N 43°33' E 007°07'0 0.0
2014-Jul-26 23:28N 43°33' E 007°07'0 0.0
2014-Jul-26 22:34N 43°33' E 007°07'0 0.0
2014-Jul-26 21:28N 43°33' E 007°07'0 0.0
2014-Jul-26 20:34N 43°33' E 007°07'0 0.0
2014-Jul-26 19:34N 43°33' E 007°07'0 0.0
2014-Jul-26 18:34N 43°33' E 007°07'0 0.0
2014-Jul-26 17:34N 43°33' E 007°07'0 0.0
2014-Jul-26 16:34N 43°33' E 007°07'0 0.0
2014-Jul-26 15:34N 43°33' E 007°07'0 0.0
2014-Jul-26 14:28N 43°33' E 007°07'0 0.0
2014-Jul-26 13:34N 43°33' E 007°07'0 0.0
2014-Jul-26 12:34N 43°33' E 007°07'0 0.0
2014-Jul-26 11:28N 43°33' E 007°07'0 0.0
2014-Jul-26 10:34N 43°33' E 007°07'0 0.0
2014-Jul-26 09:34N 43°33' E 007°07'0 0.0
2014-Jul-26 08:33N 43°33' E 007°07'0 0.0
2014-Jul-26 07:34N 43°33' E 007°07'0 0.0
2014-Jul-26 06:34N 43°33' E 007°07'0 0.0
2014-Jul-26 05:33N 43°33' E 007°07'0 0.0
2014-Jul-26 04:33N 43°33' E 007°07'0 0.0
2014-Jul-26 03:33N 43°33' E 007°07'0 0.0
2014-Jul-26 02:33N 43°33' E 007°07'0 0.0
2014-Jul-26 01:33N 43°33' E 007°07'0 0.0
2014-Jul-26 00:33N 43°33' E 007°07'0 0.0
2014-Jul-25 23:33N 43°33' E 007°07'0 0.0
2014-Jul-25 22:33N 43°33' E 007°07'0 0.0
2014-Jul-25 21:33N 43°33' E 007°07'0 0.0
2014-Jul-25 20:33N 43°33' E 007°07'0 0.0
2014-Jul-25 19:33N 43°33' E 007°07'0 0.0
2014-Jul-25 18:33N 43°33' E 007°07'0 0.0
2014-Jul-25 17:33N 43°33' E 007°07'0 0.0
2014-Jul-25 16:33N 43°33' E 007°07'0 0.0
2014-Jul-25 15:27N 43°33' E 007°07'3 3.7
2014-Jul-25 14:32N 43°31' E 007°03'0 0.1
2014-Jul-25 13:29N 43°31' E 007°03'0 0.0
2014-Jul-25 12:29N 43°31' E 007°03'0 0.0
2014-Jul-25 11:29N 43°31' E 007°03'0 0.0
2014-Jul-25 10:29N 43°31' E 007°03'0 0.0
2014-Jul-25 09:32N 43°31' E 007°03'0 0.0
2014-Jul-25 08:23N 43°31' E 007°03'0 0.0
2014-Jul-25 07:29N 43°31' E 007°03'0 0.0
2014-Jul-25 06:32N 43°31' E 007°03'0 0.0
2014-Jul-25 05:32N 43°31' E 007°03'0 0.0
2014-Jul-25 04:17N 43°31' E 007°03'0 0.0
2014-Jul-25 03:32N 43°31' E 007°03'0 0.0
2014-Jul-25 02:29N 43°31' E 007°03'0 0.0
2014-Jul-25 01:29N 43°31' E 007°03'0 0.0
2014-Jul-25 00:29N 43°31' E 007°03'0 0.0
2014-Jul-24 23:29N 43°31' E 007°03'0 0.0
2014-Jul-24 22:29N 43°31' E 007°03'0 0.0
2014-Jul-24 21:05N 43°31' E 007°03'0 0.0
2014-Jul-24 20:29N 43°31' E 007°03'0 0.0
2014-Jul-24 19:29N 43°31' E 007°03'0 0.0
2014-Jul-24 18:23N 43°31' E 007°03'0 0.0
2014-Jul-24 17:29N 43°31' E 007°03'0 0.0
2014-Jul-24 16:11N 43°31' E 007°03'0 0.0
2014-Jul-24 15:29N 43°31' E 007°03'0 0.0
2014-Jul-24 14:32N 43°31' E 007°03'0 0.0
2014-Jul-24 13:29N 43°31' E 007°03'0 0.0
2014-Jul-24 12:32N 43°31' E 007°03'0 0.0
2014-Jul-24 11:32N 43°31' E 007°03'0 0.0
2014-Jul-24 10:33N 43°31' E 007°03'1 1.4
2014-Jul-24 09:33N 43°32' E 007°05'2 1.9
2014-Jul-24 08:23N 43°34' E 007°05'0 0.0
2014-Jul-24 07:23N 43°34' E 007°05'0 0.0
2014-Jul-24 06:29N 43°34' E 007°05'0 0.0
2014-Jul-24 05:29N 43°34' E 007°05'0 0.0
2014-Jul-24 04:29N 43°34' E 007°05'0 0.0
2014-Jul-24 03:29N 43°34' E 007°05'0 0.0
2014-Jul-24 02:29N 43°34' E 007°05'0 0.0
2014-Jul-24 01:29N 43°34' E 007°05'0 0.0
2014-Jul-24 00:29N 43°34' E 007°05'0 0.0
2014-Jul-23 23:29N 43°34' E 007°05'0 0.0
2014-Jul-23 22:23N 43°34' E 007°05'0 0.0
2014-Jul-23 21:29N 43°34' E 007°05'0 0.0
2014-Jul-23 20:29N 43°34' E 007°05'0 0.0
2014-Jul-23 19:29N 43°34' E 007°05'0 0.0
2014-Jul-23 18:29N 43°34' E 007°05'0 0.0
2014-Jul-23 17:29N 43°34' E 007°05'0 0.0
2014-Jul-23 16:29N 43°34' E 007°05'0 0.0
2014-Jul-23 15:29N 43°34' E 007°05'0 0.0
2014-Jul-23 14:23N 43°34' E 007°05'0 0.0
2014-Jul-23 13:29N 43°34' E 007°05'0 0.0
2014-Jul-23 12:29N 43°34' E 007°05'0 0.0
2014-Jul-23 11:29N 43°34' E 007°05'0 0.0
2014-Jul-23 10:29N 43°34' E 007°05'0 0.0
2014-Jul-23 09:29N 43°34' E 007°05'0 0.0
2014-Jul-23 08:29N 43°34' E 007°05'0 0.0
2014-Jul-23 07:29N 43°34' E 007°05'0 0.0
2014-Jul-23 06:29N 43°34' E 007°05'0 0.0
2014-Jul-23 05:29N 43°34' E 007°05'0 0.0
2014-Jul-23 04:29N 43°34' E 007°05'0 0.0
2014-Jul-23 03:23N 43°34' E 007°05'0 0.0
2014-Jul-23 02:29N 43°34' E 007°05'0 0.0
2014-Jul-23 01:29N 43°34' E 007°05'0 0.0
2014-Jul-23 00:29N 43°34' E 007°05'0 0.0
2014-Jul-22 23:23N 43°34' E 007°05'0 0.0
2014-Jul-22 22:29N 43°34' E 007°05'0 0.0
2014-Jul-22 21:29N 43°34' E 007°05'0 0.0
2014-Jul-22 20:29N 43°34' E 007°05'0 0.0
2014-Jul-22 19:29N 43°34' E 007°05'0 0.0
2014-Jul-22 18:29N 43°34' E 007°05'0 0.0
2014-Jul-22 17:23N 43°34' E 007°05'0 0.0
2014-Jul-22 16:29N 43°34' E 007°05'0 0.0
2014-Jul-22 15:29N 43°34' E 007°05'0 0.0
2014-Jul-22 14:32N 43°34' E 007°05'0 0.0
2014-Jul-22 13:29N 43°34' E 007°05'0 0.0
2014-Jul-22 12:17N 43°34' E 007°05'0 0.0
2014-Jul-22 11:29N 43°34' E 007°05'0 0.0
2014-Jul-22 10:17N 43°34' E 007°05'0 0.0
2014-Jul-22 09:29N 43°34' E 007°05'0 0.0
2014-Jul-22 08:29N 43°34' E 007°05'0 0.0
2014-Jul-22 07:29N 43°34' E 007°05'0 0.0
2014-Jul-22 06:29N 43°34' E 007°05'0 0.0
2014-Jul-22 05:29N 43°34' E 007°05'0 0.0
2014-Jul-22 04:23N 43°34' E 007°05'0 0.0
2014-Jul-22 03:23N 43°34' E 007°05'0 0.0
2014-Jul-22 02:29N 43°34' E 007°05'0 0.0
2014-Jul-22 01:23N 43°34' E 007°05'0 0.0
2014-Jul-22 00:29N 43°34' E 007°05'0 0.0
2014-Jul-21 23:29N 43°34' E 007°05'0 0.0
2014-Jul-21 22:29N 43°34' E 007°05'0 0.0
2014-Jul-21 21:29N 43°34' E 007°05'0 0.0
2014-Jul-21 20:29N 43°34' E 007°05'0 0.0
2014-Jul-21 20:17N 43°34' E 007°05'0 0.0
2014-Jul-21 19:29N 43°34' E 007°05'0 0.0
2014-Jul-21 18:29N 43°34' E 007°05'0 0.0
2014-Jul-21 17:23N 43°34' E 007°05'0 0.0
2014-Jul-21 16:23N 43°34' E 007°05'0 0.0
2014-Jul-21 15:23N 43°34' E 007°05'0 0.0
2014-Jul-21 14:29N 43°34' E 007°05'0 0.0
2014-Jul-21 13:29N 43°34' E 007°05'0 0.0
2014-Jul-21 12:17N 43°34' E 007°05'0 0.0
2014-Jul-21 11:29N 43°34' E 007°05'0 0.0
2014-Jul-21 10:23N 43°34' E 007°05'0 0.0
2014-Jul-21 09:23N 43°34' E 007°05'0 0.0
2014-Jul-21 08:29N 43°34' E 007°05'0 0.0
2014-Jul-21 07:29N 43°34' E 007°05'0 0.0
2014-Jul-21 06:29N 43°34' E 007°05'0 0.0
2014-Jul-21 05:29N 43°34' E 007°05'0 0.0
2014-Jul-21 04:23N 43°34' E 007°05'0 0.0
2014-Jul-21 03:29N 43°34' E 007°05'0 0.0
2014-Jul-21 02:29N 43°34' E 007°05'0 0.0
2014-Jul-21 01:29N 43°34' E 007°05'0 0.0
2014-Jul-21 00:29N 43°34' E 007°05'0 0.0
2014-Jul-20 23:23N 43°34' E 007°05'0 0.0
2014-Jul-20 22:29N 43°34' E 007°05'0 0.0
2014-Jul-20 21:29N 43°34' E 007°05'0 0.0
2014-Jul-20 20:29N 43°34' E 007°05'0 0.0
2014-Jul-20 19:29N 43°34' E 007°05'0 0.0
2014-Jul-20 18:23N 43°34' E 007°05'0 0.0
2014-Jul-20 17:29N 43°34' E 007°05'0 0.0
2014-Jul-20 16:24N 43°34' E 007°05'0 0.0
2014-Jul-20 15:30N 43°34' E 007°05'0 0.0
2014-Jul-20 14:30N 43°34' E 007°05'0 0.0
2014-Jul-20 13:30N 43°34' E 007°05'0 0.0
2014-Jul-20 12:30N 43°34' E 007°05'0 0.0
2014-Jul-20 11:30N 43°34' E 007°05'  
Track history (hours):
 
Tides and Currents Weather Stations Pressure Air Temp Water Temp Dewpoint Dewpoint Depression Visibility Wind Speed Wind Dir Waves Ship Positions

Kitty

Last reported at 2014-Jul-30 11:23 UTC. Time now 2014-Jul-30 13:17 UTC.
Position N 43°32' E 007°03'.

Length 38 m; draft 2.7 m.

Type: Pleasure craft. MMSI: 319423000.

Date/timePositionNaut miles runAvg speedWind from/ knotsBaromVisibWave heightAir tempDewpointWater temp
2014-Jul-30 11:23N 43°32' E 007°03'0 0.0
2014-Jul-30 10:32N 43°32' E 007°03'3 2.6
2014-Jul-30 09:33N 43°33' E 007°06'0 0.5
2014-Jul-30 08:33N 43°33' E 007°07'2 1.5
2014-Jul-30 07:28N 43°34' E 007°05'0 0.0
2014-Jul-30 06:28N 43°34' E 007°05'0 0.0
2014-Jul-30 05:22N 43°34' E 007°05'0 0.0
2014-Jul-30 04:28N 43°34' E 007°05'0 0.0
2014-Jul-30 03:28N 43°34' E 007°05'0 0.0
2014-Jul-30 02:28N 43°34' E 007°05'0 0.0
2014-Jul-30 01:28N 43°34' E 007°05'0 0.0
2014-Jul-30 00:16N 43°34' E 007°05'0 0.0
2014-Jul-29 23:28N 43°34' E 007°05'0 0.0
2014-Jul-29 22:28N 43°34' E 007°05'0 0.0
2014-Jul-29 21:28N 43°34' E 007°05'0 0.0
2014-Jul-29 20:28N 43°34' E 007°05'0 0.0
2014-Jul-29 19:28N 43°34' E 007°05'0 0.0
2014-Jul-29 18:22N 43°34' E 007°05'0 0.0
2014-Jul-29 17:28N 43°34' E 007°05'0 0.0
2014-Jul-29 16:28N 43°34' E 007°05'0 0.0
2014-Jul-29 15:28N 43°34' E 007°05'0 0.0
2014-Jul-29 14:16N 43°34' E 007°05'0 0.0
2014-Jul-29 13:28N 43°34' E 007°05'0 0.0
2014-Jul-29 12:28N 43°34' E 007°05'0 0.0
2014-Jul-29 11:28N 43°34' E 007°05'0 0.0
2014-Jul-29 10:22N 43°34' E 007°05'0 0.0
2014-Jul-29 09:22N 43°34' E 007°05'0 0.0
2014-Jul-29 08:22N 43°34' E 007°05'0 0.0
2014-Jul-29 07:28N 43°34' E 007°05'0 0.0
2014-Jul-29 06:28N 43°34' E 007°05'0 0.0
2014-Jul-29 05:28N 43°34' E 007°05'0 0.0
2014-Jul-29 04:28N 43°34' E 007°05'0 0.0
2014-Jul-29 03:28N 43°34' E 007°05'0 0.0
2014-Jul-29 02:28N 43°34' E 007°05'0 0.0
2014-Jul-29 01:28N 43°34' E 007°05'0 0.0
2014-Jul-29 00:28N 43°34' E 007°05'0 0.0
2014-Jul-28 23:28N 43°34' E 007°05'0 0.0
2014-Jul-28 22:28N 43°34' E 007°05'0 0.0
2014-Jul-28 21:28N 43°34' E 007°05'0 0.0
2014-Jul-28 20:28N 43°34' E 007°05'0 0.0
2014-Jul-28 19:28N 43°34' E 007°05'0 0.0
2014-Jul-28 18:22N 43°34' E 007°05'0 0.0
2014-Jul-28 17:22N 43°34' E 007°05'0 0.0
2014-Jul-28 16:28N 43°34' E 007°05'0 0.0
2014-Jul-28 15:28N 43°34' E 007°05'0 0.0
2014-Jul-28 14:28N 43°34' E 007°05'0 0.0
2014-Jul-28 13:28N 43°34' E 007°05'0 0.0
2014-Jul-28 12:28N 43°34' E 007°05'0 0.0
2014-Jul-28 11:28N 43°34' E 007°05'0 0.0
2014-Jul-28 10:16N 43°34' E 007°05'0 0.0
2014-Jul-28 09:28N 43°34' E 007°05'0 0.0
2014-Jul-28 08:22N 43°34' E 007°05'0 0.0
2014-Jul-28 07:28N 43°34' E 007°05'0 0.0
2014-Jul-28 06:22N 43°34' E 007°05'0 0.0
2014-Jul-28 05:22N 43°34' E 007°05'0 0.0
2014-Jul-28 04:28N 43°34' E 007°05'0 0.0
2014-Jul-28 03:28N 43°34' E 007°05'0 0.0
2014-Jul-28 02:22N 43°34' E 007°05'0 0.0
2014-Jul-28 01:28N 43°34' E 007°05'0 0.0
2014-Jul-28 00:28N 43°34' E 007°05'0 0.0
2014-Jul-27 23:28N 43°34' E 007°05'0 0.0
2014-Jul-27 22:28N 43°34' E 007°05'0 0.0
2014-Jul-27 21:28N 43°34' E 007°05'0 0.0
2014-Jul-27 20:28N 43°34' E 007°05'0 0.0
2014-Jul-27 19:28N 43°34' E 007°05'0 0.0
2014-Jul-27 18:28N 43°34' E 007°05'0 0.0
2014-Jul-27 17:28N 43°34' E 007°05'0 0.0
2014-Jul-27 16:28N 43°34' E 007°05'0 0.0
2014-Jul-27 15:23N 43°34' E 007°05'0 0.0
2014-Jul-27 14:33N 43°34' E 007°05'1 1.0
2014-Jul-27 13:33N 43°33' E 007°06'1 0.7
2014-Jul-27 12:28N 43°33' E 007°07'0 0.0
2014-Jul-27 11:22N 43°33' E 007°07'0 0.0
2014-Jul-27 10:28N 43°33' E 007°07'0 0.0
2014-Jul-27 09:22N 43°33' E 007°07'0 0.0
2014-Jul-27 08:28N 43°33' E 007°07'0 0.0
2014-Jul-27 07:28N 43°33' E 007°07'0 0.0
2014-Jul-27 06:34N 43°33' E 007°07'0 0.0
2014-Jul-27 05:34N 43°33' E 007°07'0 0.0
2014-Jul-27 04:34N 43°33' E 007°07'0 0.0
2014-Jul-27 03:34N 43°33' E 007°07'0 0.0
2014-Jul-27 02:28N 43°33' E 007°07'0 0.0
2014-Jul-27 01:34N 43°33' E 007°07'0 0.0
2014-Jul-27 00:34N 43°33' E 007°07'0 0.0
2014-Jul-26 23:28N 43°33' E 007°07'0 0.0
2014-Jul-26 22:34N 43°33' E 007°07'0 0.0
2014-Jul-26 21:28N 43°33' E 007°07'0 0.0
2014-Jul-26 20:34N 43°33' E 007°07'0 0.0
2014-Jul-26 19:34N 43°33' E 007°07'0 0.0
2014-Jul-26 18:34N 43°33' E 007°07'0 0.0
2014-Jul-26 17:34N 43°33' E 007°07'0 0.0
2014-Jul-26 16:34N 43°33' E 007°07'0 0.0
2014-Jul-26 15:34N 43°33' E 007°07'0 0.0
2014-Jul-26 14:28N 43°33' E 007°07'0 0.0
2014-Jul-26 13:34N 43°33' E 007°07'0 0.0
2014-Jul-26 12:34N 43°33' E 007°07'0 0.0
2014-Jul-26 11:28N 43°33' E 007°07'0 0.0
2014-Jul-26 10:34N 43°33' E 007°07'0 0.0
2014-Jul-26 09:34N 43°33' E 007°07'0 0.0
2014-Jul-26 08:33N 43°33' E 007°07'0 0.0
2014-Jul-26 07:34N 43°33' E 007°07'0 0.0
2014-Jul-26 06:34N 43°33' E 007°07'0 0.0
2014-Jul-26 05:33N 43°33' E 007°07'0 0.0
2014-Jul-26 04:33N 43°33' E 007°07'0 0.0
2014-Jul-26 03:33N 43°33' E 007°07'0 0.0
2014-Jul-26 02:33N 43°33' E 007°07'0 0.0
2014-Jul-26 01:33N 43°33' E 007°07'0 0.0
2014-Jul-26 00:33N 43°33' E 007°07'0 0.0
2014-Jul-25 23:33N 43°33' E 007°07'0 0.0
2014-Jul-25 22:33N 43°33' E 007°07'0 0.0
2014-Jul-25 21:33N 43°33' E 007°07'0 0.0
2014-Jul-25 20:33N 43°33' E 007°07'0 0.0
2014-Jul-25 19:33N 43°33' E 007°07'0 0.0
2014-Jul-25 18:33N 43°33' E 007°07'0 0.0
2014-Jul-25 17:33N 43°33' E 007°07'0 0.0
2014-Jul-25 16:33N 43°33' E 007°07'0 0.0
2014-Jul-25 15:27N 43°33' E 007°07'3 3.7
2014-Jul-25 14:32N 43°31' E 007°03'0 0.1
2014-Jul-25 13:29N 43°31' E 007°03'0 0.0
2014-Jul-25 12:29N 43°31' E 007°03'0 0.0
2014-Jul-25 11:29N 43°31' E 007°03'0 0.0
2014-Jul-25 10:29N 43°31' E 007°03'0 0.0
2014-Jul-25 09:32N 43°31' E 007°03'0 0.0
2014-Jul-25 08:23N 43°31' E 007°03'0 0.0
2014-Jul-25 07:29N 43°31' E 007°03'0 0.0
2014-Jul-25 06:32N 43°31' E 007°03'0 0.0
2014-Jul-25 05:32N 43°31' E 007°03'0 0.0
2014-Jul-25 04:17N 43°31' E 007°03'0 0.0
2014-Jul-25 03:32N 43°31' E 007°03'0 0.0
2014-Jul-25 02:29N 43°31' E 007°03'0 0.0
2014-Jul-25 01:29N 43°31' E 007°03'0 0.0
2014-Jul-25 00:29N 43°31' E 007°03'0 0.0
2014-Jul-24 23:29N 43°31' E 007°03'0 0.0
2014-Jul-24 22:29N 43°31' E 007°03'0 0.0
2014-Jul-24 21:05N 43°31' E 007°03'0 0.0
2014-Jul-24 20:29N 43°31' E 007°03'0 0.0
2014-Jul-24 19:29N 43°31' E 007°03'0 0.0
2014-Jul-24 18:23N 43°31' E 007°03'0 0.0
2014-Jul-24 17:29N 43°31' E 007°03'0 0.0
2014-Jul-24 16:11N 43°31' E 007°03'0 0.0
2014-Jul-24 15:29N 43°31' E 007°03'0 0.0
2014-Jul-24 14:32N 43°31' E 007°03'0 0.0
2014-Jul-24 13:29N 43°31' E 007°03'0 0.0
2014-Jul-24 12:32N 43°31' E 007°03'0 0.0
2014-Jul-24 11:32N 43°31' E 007°03'0 0.0
2014-Jul-24 10:33N 43°31' E 007°03'1 1.4
2014-Jul-24 09:33N 43°32' E 007°05'2 1.9
2014-Jul-24 08:23N 43°34' E 007°05'0 0.0
2014-Jul-24 07:23N 43°34' E 007°05'0 0.0
2014-Jul-24 06:29N 43°34' E 007°05'0 0.0
2014-Jul-24 05:29N 43°34' E 007°05'0 0.0
2014-Jul-24 04:29N 43°34' E 007°05'0 0.0
2014-Jul-24 03:29N 43°34' E 007°05'0 0.0
2014-Jul-24 02:29N 43°34' E 007°05'0 0.0
2014-Jul-24 01:29N 43°34' E 007°05'0 0.0
2014-Jul-24 00:29N 43°34' E 007°05'0 0.0
2014-Jul-23 23:29N 43°34' E 007°05'0 0.0
2014-Jul-23 22:23N 43°34' E 007°05'0 0.0
2014-Jul-23 21:29N 43°34' E 007°05'0 0.0
2014-Jul-23 20:29N 43°34' E 007°05'0 0.0
2014-Jul-23 19:29N 43°34' E 007°05'0 0.0
2014-Jul-23 18:29N 43°34' E 007°05'0 0.0
2014-Jul-23 17:29N 43°34' E 007°05'0 0.0
2014-Jul-23 16:29N 43°34' E 007°05'0 0.0
2014-Jul-23 15:29N 43°34' E 007°05'0 0.0
2014-Jul-23 14:23N 43°34' E 007°05'0 0.0
2014-Jul-23 13:29N 43°34' E 007°05'0 0.0
2014-Jul-23 12:29N 43°34' E 007°05'0 0.0
2014-Jul-23 11:29N 43°34' E 007°05'0 0.0
2014-Jul-23 10:29N 43°34' E 007°05'0 0.0
2014-Jul-23 09:29N 43°34' E 007°05'0 0.0
2014-Jul-23 08:29N 43°34' E 007°05'0 0.0
2014-Jul-23 07:29N 43°34' E 007°05'0 0.0
2014-Jul-23 06:29N 43°34' E 007°05'0 0.0
2014-Jul-23 05:29N 43°34' E 007°05'0 0.0
2014-Jul-23 04:29N 43°34' E 007°05'0 0.0
2014-Jul-23 03:23N 43°34' E 007°05'0 0.0
2014-Jul-23 02:29N 43°34' E 007°05'0 0.0
2014-Jul-23 01:29N 43°34' E 007°05'0 0.0
2014-Jul-23 00:29N 43°34' E 007°05'0 0.0
2014-Jul-22 23:23N 43°34' E 007°05'0 0.0
2014-Jul-22 22:29N 43°34' E 007°05'0 0.0
2014-Jul-22 21:29N 43°34' E 007°05'0 0.0
2014-Jul-22 20:29N 43°34' E 007°05'0 0.0
2014-Jul-22 19:29N 43°34' E 007°05'0 0.0
2014-Jul-22 18:29N 43°34' E 007°05'0 0.0
2014-Jul-22 17:23N 43°34' E 007°05'0 0.0
2014-Jul-22 16:29N 43°34' E 007°05'0 0.0
2014-Jul-22 15:29N 43°34' E 007°05'0 0.0
2014-Jul-22 14:32N 43°34' E 007°05'0 0.0
2014-Jul-22 13:29N 43°34' E 007°05'0 0.0
2014-Jul-22 12:17N 43°34' E 007°05'0 0.0
2014-Jul-22 11:29N 43°34' E 007°05'0 0.0
2014-Jul-22 10:17N 43°34' E 007°05'0 0.0
2014-Jul-22 09:29N 43°34' E 007°05'0 0.0
2014-Jul-22 08:29N 43°34' E 007°05'0 0.0
2014-Jul-22 07:29N 43°34' E 007°05'0 0.0
2014-Jul-22 06:29N 43°34' E 007°05'0 0.0
2014-Jul-22 05:29N 43°34' E 007°05'0 0.0
2014-Jul-22 04:23N 43°34' E 007°05'0 0.0
2014-Jul-22 03:23N 43°34' E 007°05'0 0.0
2014-Jul-22 02:29N 43°34' E 007°05'0 0.0
2014-Jul-22 01:23N 43°34' E 007°05'0 0.0
2014-Jul-22 00:29N 43°34' E 007°05'0 0.0
2014-Jul-21 23:29N 43°34' E 007°05'0 0.0
2014-Jul-21 22:29N 43°34' E 007°05'0 0.0
2014-Jul-21 21:29N 43°34' E 007°05'0 0.0
2014-Jul-21 20:29N 43°34' E 007°05'0 0.0
2014-Jul-21 20:17N 43°34' E 007°05'0 0.0
2014-Jul-21 19:29N 43°34' E 007°05'0 0.0
2014-Jul-21 18:29N 43°34' E 007°05'0 0.0
2014-Jul-21 17:23N 43°34' E 007°05'0 0.0
2014-Jul-21 16:23N 43°34' E 007°05'0 0.0
2014-Jul-21 15:23N 43°34' E 007°05'0 0.0
2014-Jul-21 14:29N 43°34' E 007°05'0 0.0
2014-Jul-21 13:29N 43°34' E 007°05'0 0.0
2014-Jul-21 12:17N 43°34' E 007°05'0 0.0
2014-Jul-21 11:29N 43°34' E 007°05'0 0.0
2014-Jul-21 10:23N 43°34' E 007°05'0 0.0
2014-Jul-21 09:23N 43°34' E 007°05'0 0.0
2014-Jul-21 08:29N 43°34' E 007°05'0 0.0
2014-Jul-21 07:29N 43°34' E 007°05'0 0.0
2014-Jul-21 06:29N 43°34' E 007°05'0 0.0
2014-Jul-21 05:29N 43°34' E 007°05'0 0.0
2014-Jul-21 04:23N 43°34' E 007°05'0 0.0
2014-Jul-21 03:29N 43°34' E 007°05'0 0.0
2014-Jul-21 02:29N 43°34' E 007°05'0 0.0
2014-Jul-21 01:29N 43°34' E 007°05'0 0.0
2014-Jul-21 00:29N 43°34' E 007°05'0 0.0
2014-Jul-20 23:23N 43°34' E 007°05'0 0.0
2014-Jul-20 22:29N 43°34' E 007°05'0 0.0
2014-Jul-20 21:29N 43°34' E 007°05'0 0.0
2014-Jul-20 20:29N 43°34' E 007°05'0 0.0
2014-Jul-20 19:29N 43°34' E 007°05'0 0.0
2014-Jul-20 18:23N 43°34' E 007°05'0 0.0
2014-Jul-20 17:29N 43°34' E 007°05'0 0.0
2014-Jul-20 16:24N 43°34' E 007°05'0 0.0
2014-Jul-20 15:30N 43°34' E 007°05'0 0.0
2014-Jul-20 14:30N 43°34' E 007°05'0 0.0
2014-Jul-20 13:30N 43°34' E 007°05'0 0.0
2014-Jul-20 12:30N 43°34' E 007°05'0 0.0
2014-Jul-20 11:30N 43°34' E 007°05'  

Dump ship's entire track history